sensor_id;sensor_type;location;lat;lon;timestamp;temperature;humidity
26099;DHT22;13860;52.370;6.764;2022-12-20T00:00:18;10.30;86.20
26099;DHT22;13860;52.370;6.764;2022-12-20T00:03:22;10.30;86.20
26099;DHT22;13860;52.370;6.764;2022-12-20T00:06:27;10.30;86.20
26099;DHT22;13860;52.370;6.764;2022-12-20T00:09:31;10.30;86.20
26099;DHT22;13860;52.370;6.764;2022-12-20T00:12:35;10.30;86.20
26099;DHT22;13860;52.370;6.764;2022-12-20T00:15:39;10.30;86.20
26099;DHT22;13860;52.370;6.764;2022-12-20T00:18:43;10.30;86.20
26099;DHT22;13860;52.370;6.764;2022-12-20T00:21:48;10.30;86.20
26099;DHT22;13860;52.370;6.764;2022-12-20T00:24:52;10.40;86.20
26099;DHT22;13860;52.370;6.764;2022-12-20T00:27:56;10.40;86.20
26099;DHT22;13860;52.370;6.764;2022-12-20T00:30:59;10.40;86.20
26099;DHT22;13860;52.370;6.764;2022-12-20T00:34:03;10.40;86.20
26099;DHT22;13860;52.370;6.764;2022-12-20T00:37:09;10.40;86.20
26099;DHT22;13860;52.370;6.764;2022-12-20T00:40:13;10.40;86.30
26099;DHT22;13860;52.370;6.764;2022-12-20T00:43:16;10.40;86.20
26099;DHT22;13860;52.370;6.764;2022-12-20T00:46:21;10.40;86.20
26099;DHT22;13860;52.370;6.764;2022-12-20T00:49:26;10.40;86.20
26099;DHT22;13860;52.370;6.764;2022-12-20T00:52:32;10.40;86.20
26099;DHT22;13860;52.370;6.764;2022-12-20T00:55:40;10.40;86.20
26099;DHT22;13860;52.370;6.764;2022-12-20T00:58:44;10.50;86.20
26099;DHT22;13860;52.370;6.764;2022-12-20T01:01:48;10.40;86.20
26099;DHT22;13860;52.370;6.764;2022-12-20T01:04:54;10.50;86.20
26099;DHT22;13860;52.370;6.764;2022-12-20T01:08:00;10.50;86.20
26099;DHT22;13860;52.370;6.764;2022-12-20T01:11:06;10.50;86.20
26099;DHT22;13860;52.370;6.764;2022-12-20T01:14:12;10.50;86.20
26099;DHT22;13860;52.370;6.764;2022-12-20T01:17:17;10.50;86.20
26099;DHT22;13860;52.370;6.764;2022-12-20T01:20:21;10.50;86.20
26099;DHT22;13860;52.370;6.764;2022-12-20T01:23:27;10.50;86.30
26099;DHT22;13860;52.370;6.764;2022-12-20T01:26:31;10.50;86.30
26099;DHT22;13860;52.370;6.764;2022-12-20T01:29:35;10.50;86.20
26099;DHT22;13860;52.370;6.764;2022-12-20T01:32:38;10.50;86.20
26099;DHT22;13860;52.370;6.764;2022-12-20T01:35:42;10.60;86.30
26099;DHT22;13860;52.370;6.764;2022-12-20T01:39:00;10.60;86.20
26099;DHT22;13860;52.370;6.764;2022-12-20T01:42:04;10.60;86.20
26099;DHT22;13860;52.370;6.764;2022-12-20T01:45:13;10.60;86.20
26099;DHT22;13860;52.370;6.764;2022-12-20T01:48:25;10.60;86.20
26099;DHT22;13860;52.370;6.764;2022-12-20T01:51:31;10.70;86.20
26099;DHT22;13860;52.370;6.764;2022-12-20T01:54:40;10.70;86.20
26099;DHT22;13860;52.370;6.764;2022-12-20T01:57:46;10.70;86.20
26099;DHT22;13860;52.370;6.764;2022-12-20T02:00:52;10.70;86.10
26099;DHT22;13860;52.370;6.764;2022-12-20T02:03:55;10.80;86.20
26099;DHT22;13860;52.370;6.764;2022-12-20T02:07:00;10.80;86.10
26099;DHT22;13860;52.370;6.764;2022-12-20T02:10:09;10.80;86.10
26099;DHT22;13860;52.370;6.764;2022-12-20T02:13:22;10.80;86.10
26099;DHT22;13860;52.370;6.764;2022-12-20T02:16:30;10.80;86.00
26099;DHT22;13860;52.370;6.764;2022-12-20T02:19:53;10.80;86.00
26099;DHT22;13860;52.370;6.764;2022-12-20T02:26:55;10.90;86.00
26099;DHT22;13860;52.370;6.764;2022-12-20T02:30:12;10.90;86.00
26099;DHT22;13860;52.370;6.764;2022-12-20T02:33:18;11.00;86.00
26099;DHT22;13860;52.370;6.764;2022-12-20T02:36:23;11.00;86.00
26099;DHT22;13860;52.370;6.764;2022-12-20T02:39:29;11.00;86.00
26099;DHT22;13860;52.370;6.764;2022-12-20T02:42:33;11.00;86.00
26099;DHT22;13860;52.370;6.764;2022-12-20T02:45:39;11.00;86.00
26099;DHT22;13860;52.370;6.764;2022-12-20T02:48:42;11.10;86.00
26099;DHT22;13860;52.370;6.764;2022-12-20T02:51:47;11.10;86.00
26099;DHT22;13860;52.370;6.764;2022-12-20T02:54:54;11.10;86.00
26099;DHT22;13860;52.370;6.764;2022-12-20T02:58:01;11.10;86.00
26099;DHT22;13860;52.370;6.764;2022-12-20T03:01:12;11.10;86.00
26099;DHT22;13860;52.370;6.764;2022-12-20T03:04:21;11.10;85.90
26099;DHT22;13860;52.370;6.764;2022-12-20T03:07:28;11.10;86.00
26099;DHT22;13860;52.370;6.764;2022-12-20T03:10:32;11.10;86.00
26099;DHT22;13860;52.370;6.764;2022-12-20T03:13:36;11.10;86.00
26099;DHT22;13860;52.370;6.764;2022-12-20T03:16:44;11.00;86.00
26099;DHT22;13860;52.370;6.764;2022-12-20T03:19:48;11.10;86.10
26099;DHT22;13860;52.370;6.764;2022-12-20T03:22:52;11.00;86.10
26099;DHT22;13860;52.370;6.764;2022-12-20T03:25:56;11.00;86.10
26099;DHT22;13860;52.370;6.764;2022-12-20T03:29:08;11.10;86.10
26099;DHT22;13860;52.370;6.764;2022-12-20T03:32:14;11.00;86.20
26099;DHT22;13860;52.370;6.764;2022-12-20T03:35:19;11.00;86.20
26099;DHT22;13860;52.370;6.764;2022-12-20T03:38:22;11.00;86.30
26099;DHT22;13860;52.370;6.764;2022-12-20T03:41:27;11.00;86.30
26099;DHT22;13860;52.370;6.764;2022-12-20T03:44:31;11.00;86.40
26099;DHT22;13860;52.370;6.764;2022-12-20T03:47:37;11.00;86.50
26099;DHT22;13860;52.370;6.764;2022-12-20T03:50:40;11.00;86.50
26099;DHT22;13860;52.370;6.764;2022-12-20T03:53:44;11.00;86.60
26099;DHT22;13860;52.370;6.764;2022-12-20T03:56:49;11.00;86.70
26099;DHT22;13860;52.370;6.764;2022-12-20T03:59:53;11.00;86.80
26099;DHT22;13860;52.370;6.764;2022-12-20T04:02:58;11.00;86.80
26099;DHT22;13860;52.370;6.764;2022-12-20T04:06:04;11.00;86.80
26099;DHT22;13860;52.370;6.764;2022-12-20T04:09:08;11.00;86.80
26099;DHT22;13860;52.370;6.764;2022-12-20T04:12:17;11.00;86.90
26099;DHT22;13860;52.370;6.764;2022-12-20T04:15:21;11.00;86.90
26099;DHT22;13860;52.370;6.764;2022-12-20T04:18:28;11.00;87.00
26099;DHT22;13860;52.370;6.764;2022-12-20T04:21:34;11.00;87.00
26099;DHT22;13860;52.370;6.764;2022-12-20T04:24:39;11.00;87.10
26099;DHT22;13860;52.370;6.764;2022-12-20T04:27:54;11.00;87.10
26099;DHT22;13860;52.370;6.764;2022-12-20T04:30:58;11.00;87.20
26099;DHT22;13860;52.370;6.764;2022-12-20T04:34:06;11.00;87.20
26099;DHT22;13860;52.370;6.764;2022-12-20T04:37:10;11.00;87.20
26099;DHT22;13860;52.370;6.764;2022-12-20T04:40:24;11.10;87.30
26099;DHT22;13860;52.370;6.764;2022-12-20T04:43:31;11.10;87.30
26099;DHT22;13860;52.370;6.764;2022-12-20T04:46:37;11.00;87.20
26099;DHT22;13860;52.370;6.764;2022-12-20T04:49:47;11.10;87.30
26099;DHT22;13860;52.370;6.764;2022-12-20T04:52:51;11.10;87.30
26099;DHT22;13860;52.370;6.764;2022-12-20T04:56:08;11.00;87.30
26099;DHT22;13860;52.370;6.764;2022-12-20T04:59:12;11.10;87.90
26099;DHT22;13860;52.370;6.764;2022-12-20T05:02:19;11.10;87.40
26099;DHT22;13860;52.370;6.764;2022-12-20T05:05:33;11.00;87.30
26099;DHT22;13860;52.370;6.764;2022-12-20T05:08:37;11.10;87.40
26099;DHT22;13860;52.370;6.764;2022-12-20T05:11:42;11.00;87.30
26099;DHT22;13860;52.370;6.764;2022-12-20T05:14:46;11.00;87.30
26099;DHT22;13860;52.370;6.764;2022-12-20T05:17:54;11.00;87.30
26099;DHT22;13860;52.370;6.764;2022-12-20T05:21:03;11.10;87.40
26099;DHT22;13860;52.370;6.764;2022-12-20T05:24:22;11.00;87.30
26099;DHT22;13860;52.370;6.764;2022-12-20T05:28:01;11.10;87.50
26099;DHT22;13860;52.370;6.764;2022-12-20T05:31:08;11.10;87.40
26099;DHT22;13860;52.370;6.764;2022-12-20T05:34:12;11.10;87.40
26099;DHT22;13860;52.370;6.764;2022-12-20T05:37:23;11.10;87.50
26099;DHT22;13860;52.370;6.764;2022-12-20T05:40:28;11.10;87.30
26099;DHT22;13860;52.370;6.764;2022-12-20T05:43:32;11.10;87.40
26099;DHT22;13860;52.370;6.764;2022-12-20T05:46:38;11.10;87.40
26099;DHT22;13860;52.370;6.764;2022-12-20T05:49:47;11.10;87.50
26099;DHT22;13860;52.370;6.764;2022-12-20T05:52:53;11.10;87.50
26099;DHT22;13860;52.370;6.764;2022-12-20T05:55:58;11.10;87.40
26099;DHT22;13860;52.370;6.764;2022-12-20T05:59:09;11.10;87.40
26099;DHT22;13860;52.370;6.764;2022-12-20T06:02:14;11.10;87.40
26099;DHT22;13860;52.370;6.764;2022-12-20T06:05:19;11.10;87.40
26099;DHT22;13860;52.370;6.764;2022-12-20T06:08:26;11.20;87.50
26099;DHT22;13860;52.370;6.764;2022-12-20T06:11:31;11.20;87.50
26099;DHT22;13860;52.370;6.764;2022-12-20T06:14:39;11.10;87.40
26099;DHT22;13860;52.370;6.764;2022-12-20T06:17:46;11.20;87.50
26099;DHT22;13860;52.370;6.764;2022-12-20T06:20:50;11.20;87.50
26099;DHT22;13860;52.370;6.764;2022-12-20T06:23:59;11.20;87.50
26099;DHT22;13860;52.370;6.764;2022-12-20T06:27:04;11.20;87.50
26099;DHT22;13860;52.370;6.764;2022-12-20T06:30:10;11.20;87.60
26099;DHT22;13860;52.370;6.764;2022-12-20T06:33:33;11.20;87.50
26099;DHT22;13860;52.370;6.764;2022-12-20T06:36:37;11.30;87.60
26099;DHT22;13860;52.370;6.764;2022-12-20T06:39:46;11.20;87.50
26099;DHT22;13860;52.370;6.764;2022-12-20T06:42:50;11.30;87.60
26099;DHT22;13860;52.370;6.764;2022-12-20T06:45:57;11.30;87.60
26099;DHT22;13860;52.370;6.764;2022-12-20T06:49:01;11.30;87.60
26099;DHT22;13860;52.370;6.764;2022-12-20T06:52:05;11.20;87.70
26099;DHT22;13860;52.370;6.764;2022-12-20T06:55:21;11.20;87.50
26099;DHT22;13860;52.370;6.764;2022-12-20T06:58:25;11.20;87.60
26099;DHT22;13860;52.370;6.764;2022-12-20T07:01:30;11.20;87.70
26099;DHT22;13860;52.370;6.764;2022-12-20T07:04:33;11.20;87.70
26099;DHT22;13860;52.370;6.764;2022-12-20T07:07:38;11.20;87.80
26099;DHT22;13860;52.370;6.764;2022-12-20T07:10:48;11.20;87.80
26099;DHT22;13860;52.370;6.764;2022-12-20T07:13:54;11.20;87.80
26099;DHT22;13860;52.370;6.764;2022-12-20T07:16:58;11.20;87.90
26099;DHT22;13860;52.370;6.764;2022-12-20T07:20:02;11.20;87.90
26099;DHT22;13860;52.370;6.764;2022-12-20T07:23:14;11.20;87.90
26099;DHT22;13860;52.370;6.764;2022-12-20T07:26:21;11.20;87.70
26099;DHT22;13860;52.370;6.764;2022-12-20T07:29:26;11.20;87.80
26099;DHT22;13860;52.370;6.764;2022-12-20T07:32:30;11.20;87.80
26099;DHT22;13860;52.370;6.764;2022-12-20T07:35:33;11.20;87.80
26099;DHT22;13860;52.370;6.764;2022-12-20T07:38:37;11.20;87.90
26099;DHT22;13860;52.370;6.764;2022-12-20T07:41:43;11.20;87.90
26099;DHT22;13860;52.370;6.764;2022-12-20T07:44:50;11.20;87.80
26099;DHT22;13860;52.370;6.764;2022-12-20T07:47:54;11.20;87.80
26099;DHT22;13860;52.370;6.764;2022-12-20T07:51:06;11.20;87.90
26099;DHT22;13860;52.370;6.764;2022-12-20T07:54:12;11.20;87.90
26099;DHT22;13860;52.370;6.764;2022-12-20T07:57:23;11.20;87.90
26099;DHT22;13860;52.370;6.764;2022-12-20T08:00:30;11.20;87.90
26099;DHT22;13860;52.370;6.764;2022-12-20T08:03:35;11.20;87.90
26099;DHT22;13860;52.370;6.764;2022-12-20T08:06:41;11.20;87.90
26099;DHT22;13860;52.370;6.764;2022-12-20T08:09:45;11.20;87.80
26099;DHT22;13860;52.370;6.764;2022-12-20T08:12:52;11.20;87.80
26099;DHT22;13860;52.370;6.764;2022-12-20T08:15:56;11.20;87.80
26099;DHT22;13860;52.370;6.764;2022-12-20T08:19:00;11.20;87.80
26099;DHT22;13860;52.370;6.764;2022-12-20T08:22:03;11.30;87.90
26099;DHT22;13860;52.370;6.764;2022-12-20T08:25:08;11.30;87.80
26099;DHT22;13860;52.370;6.764;2022-12-20T08:28:14;11.30;87.80
26099;DHT22;13860;52.370;6.764;2022-12-20T08:31:17;11.30;87.80
26099;DHT22;13860;52.370;6.764;2022-12-20T08:34:21;11.40;87.80
26099;DHT22;13860;52.370;6.764;2022-12-20T08:37:25;11.40;87.70
26099;DHT22;13860;52.370;6.764;2022-12-20T08:40:29;11.40;87.70
26099;DHT22;13860;52.370;6.764;2022-12-20T08:43:35;11.40;87.60
26099;DHT22;13860;52.370;6.764;2022-12-20T08:46:39;11.50;87.60
26099;DHT22;13860;52.370;6.764;2022-12-20T08:49:43;11.50;87.60
26099;DHT22;13860;52.370;6.764;2022-12-20T08:52:49;11.60;87.50
26099;DHT22;13860;52.370;6.764;2022-12-20T08:55:53;11.60;87.50
26099;DHT22;13860;52.370;6.764;2022-12-20T08:58:58;11.60;87.40
26099;DHT22;13860;52.370;6.764;2022-12-20T09:02:02;11.60;87.30
26099;DHT22;13860;52.370;6.764;2022-12-20T09:05:08;11.60;87.30
26099;DHT22;13860;52.370;6.764;2022-12-20T09:08:12;11.60;87.30
26099;DHT22;13860;52.370;6.764;2022-12-20T09:11:18;11.70;87.20
26099;DHT22;13860;52.370;6.764;2022-12-20T09:14:24;11.70;87.10
26099;DHT22;13860;52.370;6.764;2022-12-20T09:17:28;11.70;87.10
26099;DHT22;13860;52.370;6.764;2022-12-20T09:20:32;11.80;87.10
26099;DHT22;13860;52.370;6.764;2022-12-20T09:23:37;11.80;87.00
26099;DHT22;13860;52.370;6.764;2022-12-20T09:26:40;11.80;87.00
26099;DHT22;13860;52.370;6.764;2022-12-20T09:29:49;11.80;86.90
26099;DHT22;13860;52.370;6.764;2022-12-20T09:32:52;11.90;86.90
26099;DHT22;13860;52.370;6.764;2022-12-20T09:36:10;11.90;86.90
26099;DHT22;13860;52.370;6.764;2022-12-20T09:39:14;11.90;86.90
26099;DHT22;13860;52.370;6.764;2022-12-20T09:42:22;11.90;86.80
26099;DHT22;13860;52.370;6.764;2022-12-20T09:45:33;11.90;86.80
26099;DHT22;13860;52.370;6.764;2022-12-20T09:48:38;12.00;86.80
26099;DHT22;13860;52.370;6.764;2022-12-20T09:52:03;12.00;86.70
26099;DHT22;13860;52.370;6.764;2022-12-20T09:55:20;12.00;86.70
26099;DHT22;13860;52.370;6.764;2022-12-20T09:58:36;12.00;86.70
26099;DHT22;13860;52.370;6.764;2022-12-20T10:01:48;12.00;86.70
26099;DHT22;13860;52.370;6.764;2022-12-20T10:04:52;12.00;86.60
26099;DHT22;13860;52.370;6.764;2022-12-20T10:08:02;11.90;86.70
26099;DHT22;13860;52.370;6.764;2022-12-20T10:11:10;11.90;86.60
26099;DHT22;13860;52.370;6.764;2022-12-20T10:14:29;11.90;86.60
26099;DHT22;13860;52.370;6.764;2022-12-20T10:17:49;11.90;86.70
26099;DHT22;13860;52.370;6.764;2022-12-20T10:21:04;11.90;86.70
26099;DHT22;13860;52.370;6.764;2022-12-20T10:24:15;11.90;86.70
26099;DHT22;13860;52.370;6.764;2022-12-20T10:27:20;11.90;86.70
26099;DHT22;13860;52.370;6.764;2022-12-20T10:30:26;11.80;86.70
26099;DHT22;13860;52.370;6.764;2022-12-20T10:33:32;11.80;86.80
26099;DHT22;13860;52.370;6.764;2022-12-20T10:36:37;11.80;86.80
26099;DHT22;13860;52.370;6.764;2022-12-20T10:39:42;11.80;86.80
26099;DHT22;13860;52.370;6.764;2022-12-20T10:42:46;11.80;86.90
26099;DHT22;13860;52.370;6.764;2022-12-20T10:45:56;11.80;86.90
26099;DHT22;13860;52.370;6.764;2022-12-20T10:49:27;11.70;87.00
26099;DHT22;13860;52.370;6.764;2022-12-20T10:52:31;11.70;87.00
26099;DHT22;13860;52.370;6.764;2022-12-20T10:55:36;11.70;87.00
26099;DHT22;13860;52.370;6.764;2022-12-20T10:58:40;11.70;87.10
26099;DHT22;13860;52.370;6.764;2022-12-20T11:01:46;11.70;87.10
26099;DHT22;13860;52.370;6.764;2022-12-20T11:05:00;11.70;87.20
26099;DHT22;13860;52.370;6.764;2022-12-20T11:08:12;11.60;87.20
26099;DHT22;13860;52.370;6.764;2022-12-20T11:11:37;11.60;87.20
26099;DHT22;13860;52.370;6.764;2022-12-20T11:14:43;11.60;87.10
26099;DHT22;13860;52.370;6.764;2022-12-20T11:17:50;11.60;87.20
26099;DHT22;13860;52.370;6.764;2022-12-20T11:21:06;11.60;87.20
26099;DHT22;13860;52.370;6.764;2022-12-20T11:24:26;11.60;87.30
26099;DHT22;13860;52.370;6.764;2022-12-20T11:27:39;11.60;87.30
26099;DHT22;13860;52.370;6.764;2022-12-20T11:30:51;11.60;87.30
26099;DHT22;13860;52.370;6.764;2022-12-20T11:34:05;11.50;87.30
26099;DHT22;13860;52.370;6.764;2022-12-20T11:37:19;11.50;87.40
26099;DHT22;13860;52.370;6.764;2022-12-20T11:40:29;11.60;87.50
26099;DHT22;13860;52.370;6.764;2022-12-20T11:47:42;11.50;87.60
26099;DHT22;13860;52.370;6.764;2022-12-20T11:50:58;11.50;87.60
26099;DHT22;13860;52.370;6.764;2022-12-20T11:54:09;11.50;87.60
26099;DHT22;13860;52.370;6.764;2022-12-20T11:57:19;11.50;87.70
26099;DHT22;13860;52.370;6.764;2022-12-20T12:00:24;11.50;87.60
26099;DHT22;13860;52.370;6.764;2022-12-20T12:03:32;11.50;87.70
26099;DHT22;13860;52.370;6.764;2022-12-20T12:06:39;11.50;87.70
26099;DHT22;13860;52.370;6.764;2022-12-20T12:09:54;11.50;87.70
26099;DHT22;13860;52.370;6.764;2022-12-20T12:13:03;11.50;87.80
26099;DHT22;13860;52.370;6.764;2022-12-20T12:16:11;11.50;87.80
26099;DHT22;13860;52.370;6.764;2022-12-20T12:19:17;11.50;87.80
26099;DHT22;13860;52.370;6.764;2022-12-20T12:22:26;11.50;87.80
26099;DHT22;13860;52.370;6.764;2022-12-20T12:25:34;11.50;87.90
26099;DHT22;13860;52.370;6.764;2022-12-20T12:28:38;11.50;87.90
26099;DHT22;13860;52.370;6.764;2022-12-20T12:31:42;11.50;87.90
26099;DHT22;13860;52.370;6.764;2022-12-20T12:34:58;11.50;88.00
26099;DHT22;13860;52.370;6.764;2022-12-20T12:38:15;11.50;87.90
26099;DHT22;13860;52.370;6.764;2022-12-20T12:44:59;11.50;88.10
26099;DHT22;13860;52.370;6.764;2022-12-20T12:48:10;11.50;88.00
26099;DHT22;13860;52.370;6.764;2022-12-20T12:51:24;11.50;88.00
26099;DHT22;13860;52.370;6.764;2022-12-20T12:54:34;11.50;88.00
26099;DHT22;13860;52.370;6.764;2022-12-20T12:57:57;11.50;88.70
26099;DHT22;13860;52.370;6.764;2022-12-20T13:01:04;11.50;88.20
26099;DHT22;13860;52.370;6.764;2022-12-20T13:04:22;11.50;88.20
26099;DHT22;13860;52.370;6.764;2022-12-20T13:07:29;11.50;88.20
26099;DHT22;13860;52.370;6.764;2022-12-20T13:10:59;11.50;88.20
26099;DHT22;13860;52.370;6.764;2022-12-20T13:14:48;11.50;88.30
26099;DHT22;13860;52.370;6.764;2022-12-20T13:17:55;11.50;88.40
26099;DHT22;13860;52.370;6.764;2022-12-20T13:21:29;11.50;88.20
26099;DHT22;13860;52.370;6.764;2022-12-20T13:24:36;11.50;88.40
26099;DHT22;13860;52.370;6.764;2022-12-20T13:27:42;11.50;88.30
26099;DHT22;13860;52.370;6.764;2022-12-20T13:34:52;11.50;88.50
26099;DHT22;13860;52.370;6.764;2022-12-20T13:37:58;11.50;88.50
26099;DHT22;13860;52.370;6.764;2022-12-20T13:41:15;11.50;88.50
26099;DHT22;13860;52.370;6.764;2022-12-20T13:44:38;11.50;88.60
26099;DHT22;13860;52.370;6.764;2022-12-20T13:47:46;11.50;88.70
26099;DHT22;13860;52.370;6.764;2022-12-20T13:50:53;11.50;88.60
26099;DHT22;13860;52.370;6.764;2022-12-20T13:54:00;11.50;88.60
26099;DHT22;13860;52.370;6.764;2022-12-20T13:57:05;11.60;88.70
26099;DHT22;13860;52.370;6.764;2022-12-20T14:00:15;11.50;88.60
26099;DHT22;13860;52.370;6.764;2022-12-20T14:03:22;11.50;88.70
26099;DHT22;13860;52.370;6.764;2022-12-20T14:06:28;11.60;88.70
26099;DHT22;13860;52.370;6.764;2022-12-20T14:09:34;11.60;88.70
26099;DHT22;13860;52.370;6.764;2022-12-20T14:12:43;11.60;88.70
26099;DHT22;13860;52.370;6.764;2022-12-20T14:15:48;11.60;88.80
26099;DHT22;13860;52.370;6.764;2022-12-20T14:19:00;11.60;88.80
26099;DHT22;13860;52.370;6.764;2022-12-20T14:22:08;11.60;88.90
26099;DHT22;13860;52.370;6.764;2022-12-20T14:25:15;11.60;88.90
26099;DHT22;13860;52.370;6.764;2022-12-20T14:28:28;11.60;88.90
26099;DHT22;13860;52.370;6.764;2022-12-20T14:31:39;11.60;88.90
26099;DHT22;13860;52.370;6.764;2022-12-20T14:34:42;11.60;88.90
26099;DHT22;13860;52.370;6.764;2022-12-20T14:37:54;11.60;88.90
26099;DHT22;13860;52.370;6.764;2022-12-20T14:40:59;11.60;89.00
26099;DHT22;13860;52.370;6.764;2022-12-20T14:44:13;11.60;88.90
26099;DHT22;13860;52.370;6.764;2022-12-20T14:47:21;11.60;89.00
26099;DHT22;13860;52.370;6.764;2022-12-20T14:50:30;11.60;89.00
26099;DHT22;13860;52.370;6.764;2022-12-20T14:53:38;11.60;89.00
26099;DHT22;13860;52.370;6.764;2022-12-20T14:56:45;11.60;89.10
26099;DHT22;13860;52.370;6.764;2022-12-20T15:00:00;11.60;89.10
26099;DHT22;13860;52.370;6.764;2022-12-20T15:03:15;11.60;89.20
26099;DHT22;13860;52.370;6.764;2022-12-20T15:06:31;11.60;89.10
26099;DHT22;13860;52.370;6.764;2022-12-20T15:09:41;11.60;89.20
26099;DHT22;13860;52.370;6.764;2022-12-20T15:12:44;11.60;89.20
26099;DHT22;13860;52.370;6.764;2022-12-20T15:15:48;11.60;89.20
26099;DHT22;13860;52.370;6.764;2022-12-20T15:18:54;11.60;89.20
26099;DHT22;13860;52.370;6.764;2022-12-20T15:21:58;11.60;89.10
26099;DHT22;13860;52.370;6.764;2022-12-20T15:25:13;11.60;89.20
26099;DHT22;13860;52.370;6.764;2022-12-20T15:28:19;11.60;89.30
26099;DHT22;13860;52.370;6.764;2022-12-20T15:31:24;11.60;89.20
26099;DHT22;13860;52.370;6.764;2022-12-20T15:34:36;11.60;89.30
26099;DHT22;13860;52.370;6.764;2022-12-20T15:37:41;11.60;89.30
26099;DHT22;13860;52.370;6.764;2022-12-20T15:40:48;11.60;89.30
26099;DHT22;13860;52.370;6.764;2022-12-20T15:43:55;11.60;89.30
26099;DHT22;13860;52.370;6.764;2022-12-20T15:47:00;11.60;89.30
26099;DHT22;13860;52.370;6.764;2022-12-20T15:50:04;11.60;89.30
26099;DHT22;13860;52.370;6.764;2022-12-20T15:53:12;11.60;89.30
26099;DHT22;13860;52.370;6.764;2022-12-20T15:56:20;11.60;89.20
26099;DHT22;13860;52.370;6.764;2022-12-20T15:59:24;11.60;89.30
26099;DHT22;13860;52.370;6.764;2022-12-20T16:02:48;11.60;89.40
26099;DHT22;13860;52.370;6.764;2022-12-20T16:05:53;11.60;89.40
26099;DHT22;13860;52.370;6.764;2022-12-20T16:08:57;11.60;89.40
26099;DHT22;13860;52.370;6.764;2022-12-20T16:12:03;11.60;89.50
26099;DHT22;13860;52.370;6.764;2022-12-20T16:15:18;11.60;89.40
26099;DHT22;13860;52.370;6.764;2022-12-20T16:18:21;11.60;89.50
26099;DHT22;13860;52.370;6.764;2022-12-20T16:21:27;11.60;89.50
26099;DHT22;13860;52.370;6.764;2022-12-20T16:24:32;11.60;89.50
26099;DHT22;13860;52.370;6.764;2022-12-20T16:27:38;11.60;89.50
26099;DHT22;13860;52.370;6.764;2022-12-20T16:30:42;11.60;89.60
26099;DHT22;13860;52.370;6.764;2022-12-20T16:33:54;11.60;89.60
26099;DHT22;13860;52.370;6.764;2022-12-20T16:36:58;11.60;89.60
26099;DHT22;13860;52.370;6.764;2022-12-20T16:40:03;11.60;89.60
26099;DHT22;13860;52.370;6.764;2022-12-20T16:43:13;11.60;89.70
26099;DHT22;13860;52.370;6.764;2022-12-20T16:46:20;11.60;89.70
26099;DHT22;13860;52.370;6.764;2022-12-20T16:49:24;11.60;89.70
26099;DHT22;13860;52.370;6.764;2022-12-20T16:52:28;11.60;89.70
26099;DHT22;13860;52.370;6.764;2022-12-20T16:55:32;11.60;89.70
26099;DHT22;13860;52.370;6.764;2022-12-20T16:58:43;11.60;89.70
26099;DHT22;13860;52.370;6.764;2022-12-20T17:02:21;11.60;89.80
26099;DHT22;13860;52.370;6.764;2022-12-20T17:05:28;11.60;89.80
26099;DHT22;13860;52.370;6.764;2022-12-20T17:08:32;11.60;89.80
26099;DHT22;13860;52.370;6.764;2022-12-20T17:11:51;11.50;89.80
26099;DHT22;13860;52.370;6.764;2022-12-20T17:14:57;11.60;89.90
26099;DHT22;13860;52.370;6.764;2022-12-20T17:18:01;11.60;89.90
26099;DHT22;13860;52.370;6.764;2022-12-20T17:21:11;11.60;89.90
26099;DHT22;13860;52.370;6.764;2022-12-20T17:24:18;11.60;89.90
26099;DHT22;13860;52.370;6.764;2022-12-20T17:27:22;11.50;89.70
26099;DHT22;13860;52.370;6.764;2022-12-20T17:30:28;11.60;89.80
26099;DHT22;13860;52.370;6.764;2022-12-20T17:33:31;11.60;90.20
26099;DHT22;13860;52.370;6.764;2022-12-20T17:36:35;11.50;89.70
26099;DHT22;13860;52.370;6.764;2022-12-20T17:39:45;11.50;89.80
26099;DHT22;13860;52.370;6.764;2022-12-20T17:42:57;11.50;89.80
26099;DHT22;13860;52.370;6.764;2022-12-20T17:46:03;11.50;89.90
26099;DHT22;13860;52.370;6.764;2022-12-20T17:49:07;11.50;90.20
26099;DHT22;13860;52.370;6.764;2022-12-20T17:52:12;11.50;89.90
26099;DHT22;13860;52.370;6.764;2022-12-20T17:55:18;11.50;89.90
26099;DHT22;13860;52.370;6.764;2022-12-20T17:58:23;11.50;89.90
26099;DHT22;13860;52.370;6.764;2022-12-20T18:01:30;11.50;89.90
26099;DHT22;13860;52.370;6.764;2022-12-20T18:04:35;11.50;90.00
26099;DHT22;13860;52.370;6.764;2022-12-20T18:07:39;11.50;90.00
26099;DHT22;13860;52.370;6.764;2022-12-20T18:10:43;11.50;89.90
26099;DHT22;13860;52.370;6.764;2022-12-20T18:13:49;11.50;90.00
26099;DHT22;13860;52.370;6.764;2022-12-20T18:16:56;11.50;90.00
26099;DHT22;13860;52.370;6.764;2022-12-20T18:20:01;11.50;90.00
26099;DHT22;13860;52.370;6.764;2022-12-20T18:23:05;11.50;90.00
26099;DHT22;13860;52.370;6.764;2022-12-20T18:26:11;11.50;90.00
26099;DHT22;13860;52.370;6.764;2022-12-20T18:29:16;11.50;90.00
26099;DHT22;13860;52.370;6.764;2022-12-20T18:32:22;11.50;90.00
26099;DHT22;13860;52.370;6.764;2022-12-20T18:35:31;11.50;90.00
26099;DHT22;13860;52.370;6.764;2022-12-20T18:38:37;11.50;90.00
26099;DHT22;13860;52.370;6.764;2022-12-20T18:41:42;11.50;90.00
26099;DHT22;13860;52.370;6.764;2022-12-20T18:44:48;11.50;90.00
26099;DHT22;13860;52.370;6.764;2022-12-20T18:47:53;11.50;90.00
26099;DHT22;13860;52.370;6.764;2022-12-20T18:51:02;11.50;90.00
26099;DHT22;13860;52.370;6.764;2022-12-20T18:54:06;11.40;90.00
26099;DHT22;13860;52.370;6.764;2022-12-20T18:57:10;11.50;90.00
26099;DHT22;13860;52.370;6.764;2022-12-20T19:00:16;11.40;90.00
26099;DHT22;13860;52.370;6.764;2022-12-20T19:03:21;11.40;90.00
26099;DHT22;13860;52.370;6.764;2022-12-20T19:06:25;11.40;90.00
26099;DHT22;13860;52.370;6.764;2022-12-20T19:09:29;11.40;90.00
26099;DHT22;13860;52.370;6.764;2022-12-20T19:12:33;11.40;90.00
26099;DHT22;13860;52.370;6.764;2022-12-20T19:15:37;11.40;90.00
26099;DHT22;13860;52.370;6.764;2022-12-20T19:18:43;11.40;90.00
26099;DHT22;13860;52.370;6.764;2022-12-20T19:21:47;11.40;90.00
26099;DHT22;13860;52.370;6.764;2022-12-20T19:24:51;11.40;90.00
26099;DHT22;13860;52.370;6.764;2022-12-20T19:27:56;11.40;90.10
26099;DHT22;13860;52.370;6.764;2022-12-20T19:31:03;11.40;90.10
26099;DHT22;13860;52.370;6.764;2022-12-20T19:34:11;11.40;90.10
26099;DHT22;13860;52.370;6.764;2022-12-20T19:37:16;11.30;90.00
26099;DHT22;13860;52.370;6.764;2022-12-20T19:40:20;11.30;90.00
26099;DHT22;13860;52.370;6.764;2022-12-20T19:43:23;11.30;90.00
26099;DHT22;13860;52.370;6.764;2022-12-20T19:46:27;11.30;90.00
26099;DHT22;13860;52.370;6.764;2022-12-20T19:49:33;11.30;90.10
26099;DHT22;13860;52.370;6.764;2022-12-20T19:52:38;11.30;90.10
26099;DHT22;13860;52.370;6.764;2022-12-20T19:55:50;11.30;90.00
26099;DHT22;13860;52.370;6.764;2022-12-20T19:58:54;11.30;90.10